sensor_id;sensor_type;location;lat;lon;timestamp;pressure;altitude;pressure_sealevel;temperature;humidity
37304;BME280;23188;51.188;16.374;2022-07-06T00:01:15;100466.73;;;17.32;84.29
37304;BME280;23188;51.188;16.374;2022-07-06T00:05:17;100457.52;;;17.35;84.28
37304;BME280;23188;51.188;16.374;2022-07-06T00:09:18;100461.20;;;17.34;84.30
37304;BME280;23188;51.188;16.374;2022-07-06T00:13:20;100464.91;;;17.33;84.46
37304;BME280;23188;51.188;16.374;2022-07-06T00:17:21;100472.30;;;17.35;84.86
37304;BME280;23188;51.188;16.374;2022-07-06T00:25:45;100472.81;;;17.43;85.84
37304;BME280;23188;51.188;16.374;2022-07-06T00:29:46;100468.45;;;17.46;86.46
37304;BME280;23188;51.188;16.374;2022-07-06T00:33:51;100454.50;;;17.50;86.73
37304;BME280;23188;51.188;16.374;2022-07-06T00:37:52;100461.56;;;17.55;86.75
37304;BME280;23188;51.188;16.374;2022-07-06T00:41:54;100461.89;;;17.56;87.37
37304;BME280;23188;51.188;16.374;2022-07-06T00:45:56;100465.58;;;17.43;88.62
37304;BME280;23188;51.188;16.374;2022-07-06T00:49:57;100465.58;;;17.35;90.12
37304;BME280;23188;51.188;16.374;2022-07-06T00:54:17;100468.42;;;17.33;88.73
37304;BME280;23188;51.188;16.374;2022-07-06T00:58:19;100460.53;;;17.40;87.23
37304;BME280;23188;51.188;16.374;2022-07-06T01:02:20;100463.74;;;17.39;86.25
37304;BME280;23188;51.188;16.374;2022-07-06T01:06:23;100459.19;;;17.36;87.60
37304;BME280;23188;51.188;16.374;2022-07-06T01:10:39;100462.03;;;17.34;87.82
37304;BME280;23188;51.188;16.374;2022-07-06T01:14:41;100458.52;;;17.30;88.42
37304;BME280;23188;51.188;16.374;2022-07-06T01:18:42;100466.88;;;17.10;90.99
37304;BME280;23188;51.188;16.374;2022-07-06T01:22:46;100471.84;;;16.92;90.49
37304;BME280;23188;51.188;16.374;2022-07-06T01:26:52;100469.09;;;16.80;88.75
37304;BME280;23188;51.188;16.374;2022-07-06T01:30:53;100466.73;;;16.77;88.37
37304;BME280;23188;51.188;16.374;2022-07-06T01:34:55;100465.41;;;16.85;88.14
37304;BME280;23188;51.188;16.374;2022-07-06T01:38:56;100467.77;;;16.88;88.20
37304;BME280;23188;51.188;16.374;2022-07-06T01:42:59;100465.80;;;16.94;87.98
37304;BME280;23188;51.188;16.374;2022-07-06T01:47:00;100461.09;;;16.96;87.19
37304;BME280;23188;51.188;16.374;2022-07-06T01:51:04;100462.99;;;17.00;87.33
37304;BME280;23188;51.188;16.374;2022-07-06T01:55:06;100464.34;;;17.08;88.10
37304;BME280;23188;51.188;16.374;2022-07-06T01:59:08;100459.89;;;16.87;91.08
37304;BME280;23188;51.188;16.374;2022-07-06T02:03:10;100468.61;;;16.80;92.56
37304;BME280;23188;51.188;16.374;2022-07-06T02:07:12;100477.34;;;16.82;92.56
37304;BME280;23188;51.188;16.374;2022-07-06T02:11:13;100489.97;;;16.90;92.73
37304;BME280;23188;51.188;16.374;2022-07-06T02:15:14;100492.82;;;16.97;92.86
37304;BME280;23188;51.188;16.374;2022-07-06T02:19:16;100497.26;;;17.02;93.63
37304;BME280;23188;51.188;16.374;2022-07-06T02:23:17;100499.09;;;17.02;94.02
37304;BME280;23188;51.188;16.374;2022-07-06T02:32:13;100482.64;;;17.09;93.81
37304;BME280;23188;51.188;16.374;2022-07-06T02:36:14;100517.61;;;17.13;93.18
37304;BME280;23188;51.188;16.374;2022-07-06T02:40:15;100513.68;;;16.99;92.18
37304;BME280;23188;51.188;16.374;2022-07-06T02:44:17;100514.87;;;17.01;91.99
37304;BME280;23188;51.188;16.374;2022-07-06T02:48:18;100521.27;;;17.08;91.29
37304;BME280;23188;51.188;16.374;2022-07-06T02:52:22;100543.86;;;16.93;91.24
37304;BME280;23188;51.188;16.374;2022-07-06T02:56:29;100545.20;;;16.93;91.17
37304;BME280;23188;51.188;16.374;2022-07-06T03:00:31;100547.88;;;16.89;89.95
37304;BME280;23188;51.188;16.374;2022-07-06T03:04:45;100545.19;;;16.89;89.48
37304;BME280;23188;51.188;16.374;2022-07-06T03:08:46;100556.48;;;16.96;88.39
37304;BME280;23188;51.188;16.374;2022-07-06T03:12:47;100568.62;;;17.01;89.17
37304;BME280;23188;51.188;16.374;2022-07-06T03:16:48;100567.72;;;16.96;90.13
37304;BME280;23188;51.188;16.374;2022-07-06T03:20:50;100576.63;;;16.92;91.74
37304;BME280;23188;51.188;16.374;2022-07-06T03:25:02;100564.13;;;16.83;93.66
37304;BME280;23188;51.188;16.374;2022-07-06T03:29:04;100583.72;;;16.71;95.55
37304;BME280;23188;51.188;16.374;2022-07-06T03:33:14;100589.11;;;16.75;96.13
37304;BME280;23188;51.188;16.374;2022-07-06T03:37:15;100593.15;;;16.79;96.47
37304;BME280;23188;51.188;16.374;2022-07-06T03:41:17;100596.37;;;16.83;96.73
37304;BME280;23188;51.188;16.374;2022-07-06T03:45:19;100609.64;;;16.80;97.95
37304;BME280;23188;51.188;16.374;2022-07-06T03:49:21;100625.48;;;16.69;100.00
37304;BME280;23188;51.188;16.374;2022-07-06T03:53:23;100604.97;;;16.60;100.00
37304;BME280;23188;51.188;16.374;2022-07-06T03:57:32;100615.12;;;16.48;100.00
37304;BME280;23188;51.188;16.374;2022-07-06T04:01:33;100614.24;;;16.44;100.00
37304;BME280;23188;51.188;16.374;2022-07-06T04:05:35;100608.99;;;16.38;100.00
37304;BME280;23188;51.188;16.374;2022-07-06T04:09:36;100607.14;;;16.34;100.00
37304;BME280;23188;51.188;16.374;2022-07-06T04:13:38;100605.16;;;16.40;100.00
37304;BME280;23188;51.188;16.374;2022-07-06T04:17:39;100589.94;;;16.45;100.00
37304;BME280;23188;51.188;16.374;2022-07-06T04:21:53;100597.97;;;16.41;100.00
37304;BME280;23188;51.188;16.374;2022-07-06T04:25:59;100607.95;;;16.53;100.00
37304;BME280;23188;51.188;16.374;2022-07-06T04:30:01;100603.97;;;16.61;100.00
37304;BME280;23188;51.188;16.374;2022-07-06T04:34:03;100599.17;;;16.73;100.00
37304;BME280;23188;51.188;16.374;2022-07-06T04:38:14;100589.66;;;16.83;100.00
37304;BME280;23188;51.188;16.374;2022-07-06T04:42:36;100587.05;;;16.95;100.00
37304;BME280;23188;51.188;16.374;2022-07-06T04:46:39;100581.59;;;17.09;100.00
37304;BME280;23188;51.188;16.374;2022-07-06T04:50:41;100561.98;;;17.25;100.00
37304;BME280;23188;51.188;16.374;2022-07-06T04:54:42;100555.13;;;17.35;100.00
37304;BME280;23188;51.188;16.374;2022-07-06T04:58:43;100526.44;;;17.52;99.45
37304;BME280;23188;51.188;16.374;2022-07-06T05:02:44;100512.32;;;17.63;97.25
37304;BME280;23188;51.188;16.374;2022-07-06T05:06:46;100517.21;;;17.63;98.02
37304;BME280;23188;51.188;16.374;2022-07-06T05:10:48;100511.66;;;17.52;99.66
37304;BME280;23188;51.188;16.374;2022-07-06T05:14:50;100516.51;;;17.53;99.49
37304;BME280;23188;51.188;16.374;2022-07-06T05:18:51;100522.07;;;17.60;100.00
37304;BME280;23188;51.188;16.374;2022-07-06T05:22:53;100535.70;;;17.75;100.00
37304;BME280;23188;51.188;16.374;2022-07-06T05:26:54;100550.67;;;17.85;100.00
37304;BME280;23188;51.188;16.374;2022-07-06T05:30:55;100577.75;;;17.88;100.00
37304;BME280;23188;51.188;16.374;2022-07-06T05:34:56;100580.27;;;17.73;100.00
37304;BME280;23188;51.188;16.374;2022-07-06T05:38:58;100583.25;;;17.53;100.00
37304;BME280;23188;51.188;16.374;2022-07-06T05:42:59;100590.13;;;17.44;100.00
37304;BME280;23188;51.188;16.374;2022-07-06T05:47:01;100588.78;;;17.52;100.00
37304;BME280;23188;51.188;16.374;2022-07-06T05:51:04;100584.75;;;17.56;100.00
37304;BME280;23188;51.188;16.374;2022-07-06T05:55:06;100585.48;;;17.95;100.00
37304;BME280;23188;51.188;16.374;2022-07-06T05:59:09;100587.71;;;18.25;100.00
37304;BME280;23188;51.188;16.374;2022-07-06T06:03:11;100585.23;;;18.96;100.00
37304;BME280;23188;51.188;16.374;2022-07-06T06:07:13;100578.44;;;19.76;96.52
37304;BME280;23188;51.188;16.374;2022-07-06T06:11:15;100583.96;;;20.10;87.02
37304;BME280;23188;51.188;16.374;2022-07-06T06:15:17;100576.83;;;20.52;84.58
37304;BME280;23188;51.188;16.374;2022-07-06T06:19:19;100579.44;;;20.94;84.53
37304;BME280;23188;51.188;16.374;2022-07-06T06:23:21;100580.06;;;21.26;79.94
37304;BME280;23188;51.188;16.374;2022-07-06T06:27:24;100583.03;;;21.06;77.49
37304;BME280;23188;51.188;16.374;2022-07-06T06:31:25;100586.70;;;21.35;79.99
37304;BME280;23188;51.188;16.374;2022-07-06T06:35:27;100586.66;;;21.65;79.72
37304;BME280;23188;51.188;16.374;2022-07-06T06:39:28;100584.61;;;21.78;77.52
37304;BME280;23188;51.188;16.374;2022-07-06T06:43:30;100582.09;;;21.50;75.24
37304;BME280;23188;51.188;16.374;2022-07-06T06:47:32;100585.75;;;21.79;75.45
37304;BME280;23188;51.188;16.374;2022-07-06T06:51:34;100586.53;;;21.95;72.82
37304;BME280;23188;51.188;16.374;2022-07-06T06:55:35;100591.88;;;22.10;73.16
37304;BME280;23188;51.188;16.374;2022-07-06T06:59:39;100588.64;;;22.21;68.81
37304;BME280;23188;51.188;16.374;2022-07-06T07:03:41;100570.17;;;22.03;68.06
37304;BME280;23188;51.188;16.374;2022-07-06T07:07:42;100579.33;;;21.91;68.47
37304;BME280;23188;51.188;16.374;2022-07-06T07:11:44;100576.33;;;22.08;70.19
37304;BME280;23188;51.188;16.374;2022-07-06T07:15:45;100579.60;;;22.47;69.49
37304;BME280;23188;51.188;16.374;2022-07-06T07:19:46;100581.91;;;22.50;68.54
37304;BME280;23188;51.188;16.374;2022-07-06T07:23:48;100585.36;;;22.65;66.96
37304;BME280;23188;51.188;16.374;2022-07-06T07:27:52;100596.02;;;22.56;66.36
37304;BME280;23188;51.188;16.374;2022-07-06T07:32:00;100597.67;;;22.50;66.61
37304;BME280;23188;51.188;16.374;2022-07-06T07:36:01;100608.59;;;22.64;67.31
37304;BME280;23188;51.188;16.374;2022-07-06T07:40:04;100594.43;;;22.51;68.10
37304;BME280;23188;51.188;16.374;2022-07-06T07:44:06;100605.40;;;22.43;67.04
37304;BME280;23188;51.188;16.374;2022-07-06T07:48:07;100603.77;;;22.37;67.35
37304;BME280;23188;51.188;16.374;2022-07-06T07:52:10;100607.84;;;22.48;67.40
37304;BME280;23188;51.188;16.374;2022-07-06T07:56:12;100612.59;;;22.86;67.55
37304;BME280;23188;51.188;16.374;2022-07-06T08:00:14;100609.50;;;23.13;66.46
37304;BME280;23188;51.188;16.374;2022-07-06T08:04:16;100614.65;;;23.19;63.52
37304;BME280;23188;51.188;16.374;2022-07-06T08:08:17;100601.27;;;23.10;64.62
37304;BME280;23188;51.188;16.374;2022-07-06T08:12:20;100606.83;;;23.37;65.16
37304;BME280;23188;51.188;16.374;2022-07-06T08:16:21;100612.06;;;23.39;63.36
37304;BME280;23188;51.188;16.374;2022-07-06T08:20:24;100612.41;;;23.53;63.57
37304;BME280;23188;51.188;16.374;2022-07-06T08:33:06;100626.78;;;23.72;60.22
37304;BME280;23188;51.188;16.374;2022-07-06T08:37:11;100615.72;;;23.80;59.24
37304;BME280;23188;51.188;16.374;2022-07-06T08:41:28;100609.98;;;23.86;60.34
37304;BME280;23188;51.188;16.374;2022-07-06T08:45:31;100612.98;;;24.04;61.25
37304;BME280;23188;51.188;16.374;2022-07-06T08:49:37;100608.69;;;24.13;58.92
37304;BME280;23188;51.188;16.374;2022-07-06T08:53:41;100610.17;;;24.29;58.92
37304;BME280;23188;51.188;16.374;2022-07-06T08:57:45;100607.34;;;24.33;59.07
37304;BME280;23188;51.188;16.374;2022-07-06T09:01:47;100603.89;;;24.42;57.37
37304;BME280;23188;51.188;16.374;2022-07-06T09:05:50;100602.73;;;24.47;57.48
37304;BME280;23188;51.188;16.374;2022-07-06T09:09:54;100589.21;;;24.63;57.96
37304;BME280;23188;51.188;16.374;2022-07-06T09:13:57;100600.08;;;24.70;55.60
37304;BME280;23188;51.188;16.374;2022-07-06T09:17:59;100597.36;;;24.70;55.79
37304;BME280;23188;51.188;16.374;2022-07-06T09:22:02;100590.55;;;24.90;56.25
37304;BME280;23188;51.188;16.374;2022-07-06T09:26:05;100590.85;;;24.98;55.53
37304;BME280;23188;51.188;16.374;2022-07-06T09:30:08;100586.94;;;25.09;55.12
37304;BME280;23188;51.188;16.374;2022-07-06T09:34:11;100586.84;;;25.30;57.77
37304;BME280;23188;51.188;16.374;2022-07-06T09:38:14;100583.94;;;25.24;54.78
37304;BME280;23188;51.188;16.374;2022-07-06T09:42:26;100584.72;;;25.09;53.81
37304;BME280;23188;51.188;16.374;2022-07-06T09:46:27;100573.48;;;25.21;54.48
37304;BME280;23188;51.188;16.374;2022-07-06T09:50:29;100576.33;;;25.40;51.34
37304;BME280;23188;51.188;16.374;2022-07-06T09:54:54;100575.98;;;24.93;51.23
37304;BME280;23188;51.188;16.374;2022-07-06T09:58:55;100567.63;;;24.88;52.98
37304;BME280;23188;51.188;16.374;2022-07-06T10:02:57;100563.26;;;24.80;55.72
37304;BME280;23188;51.188;16.374;2022-07-06T10:06:59;100577.10;;;25.08;52.07
37304;BME280;23188;51.188;16.374;2022-07-06T10:11:02;100582.00;;;25.09;53.14
37304;BME280;23188;51.188;16.374;2022-07-06T10:15:05;100589.21;;;24.83;54.54
37304;BME280;23188;51.188;16.374;2022-07-06T10:19:08;100583.07;;;24.58;55.75
37304;BME280;23188;51.188;16.374;2022-07-06T10:23:10;100585.23;;;24.65;54.72
37304;BME280;23188;51.188;16.374;2022-07-06T10:27:14;100574.36;;;24.65;52.01
37304;BME280;23188;51.188;16.374;2022-07-06T10:31:17;100572.20;;;24.94;53.45
37304;BME280;23188;51.188;16.374;2022-07-06T10:35:31;100583.16;;;24.54;52.44
37304;BME280;23188;51.188;16.374;2022-07-06T10:39:34;100586.11;;;24.32;53.53
37304;BME280;23188;51.188;16.374;2022-07-06T10:43:56;100588.83;;;24.32;54.22
37304;BME280;23188;51.188;16.374;2022-07-06T10:48:17;100589.24;;;24.16;53.21
37304;BME280;23188;51.188;16.374;2022-07-06T10:52:20;100587.80;;;24.13;54.43
37304;BME280;23188;51.188;16.374;2022-07-06T11:00:54;100577.16;;;24.75;52.21
37304;BME280;23188;51.188;16.374;2022-07-06T11:04:56;100576.67;;;24.75;48.62
37304;BME280;23188;51.188;16.374;2022-07-06T11:13:03;100563.95;;;25.21;49.16
37304;BME280;23188;51.188;16.374;2022-07-06T11:17:10;100576.36;;;25.10;48.15
37304;BME280;23188;51.188;16.374;2022-07-06T11:21:23;100558.61;;;24.94;48.49
37304;BME280;23188;51.188;16.374;2022-07-06T11:25:25;100580.11;;;25.16;50.32
37304;BME280;23188;51.188;16.374;2022-07-06T11:29:29;100580.62;;;25.16;49.03
37304;BME280;23188;51.188;16.374;2022-07-06T11:33:31;100577.47;;;24.89;49.50
37304;BME280;23188;51.188;16.374;2022-07-06T11:37:33;100575.79;;;24.75;49.76
37304;BME280;23188;51.188;16.374;2022-07-06T11:41:35;100564.44;;;25.05;49.25
37304;BME280;23188;51.188;16.374;2022-07-06T11:45:37;100573.53;;;25.31;49.38
37304;BME280;23188;51.188;16.374;2022-07-06T11:49:40;100563.64;;;24.98;47.51
37304;BME280;23188;51.188;16.374;2022-07-06T11:57:57;100550.45;;;25.63;48.23
37304;BME280;23188;51.188;16.374;2022-07-06T12:06:38;100542.27;;;25.95;45.30
37304;BME280;23188;51.188;16.374;2022-07-06T12:10:40;100555.52;;;25.75;44.04
37304;BME280;23188;51.188;16.374;2022-07-06T12:14:42;100554.27;;;25.32;45.78
37304;BME280;23188;51.188;16.374;2022-07-06T12:18:45;100549.71;;;25.49;46.18
37304;BME280;23188;51.188;16.374;2022-07-06T12:22:48;100560.61;;;25.42;47.54
37304;BME280;23188;51.188;16.374;2022-07-06T12:26:50;100558.33;;;25.39;49.44
37304;BME280;23188;51.188;16.374;2022-07-06T12:30:53;100559.31;;;25.51;46.59
37304;BME280;23188;51.188;16.374;2022-07-06T12:35:08;100552.27;;;25.60;45.69
37304;BME280;23188;51.188;16.374;2022-07-06T12:39:12;100558.45;;;25.58;45.19
37304;BME280;23188;51.188;16.374;2022-07-06T12:47:41;100560.16;;;25.68;44.90
37304;BME280;23188;51.188;16.374;2022-07-06T12:52:01;100555.23;;;25.45;44.58
37304;BME280;23188;51.188;16.374;2022-07-06T12:56:12;100552.13;;;25.64;45.19
37304;BME280;23188;51.188;16.374;2022-07-06T13:00:16;100568.94;;;25.70;43.72
37304;BME280;23188;51.188;16.374;2022-07-06T13:04:29;100564.23;;;26.00;44.80
37304;BME280;23188;51.188;16.374;2022-07-06T13:08:32;100569.89;;;26.15;42.80
37304;BME280;23188;51.188;16.374;2022-07-06T13:12:52;100557.58;;;26.05;43.63
37304;BME280;23188;51.188;16.374;2022-07-06T13:16:54;100549.30;;;25.93;44.50
37304;BME280;23188;51.188;16.374;2022-07-06T13:20:55;100542.32;;;25.88;44.43
37304;BME280;23188;51.188;16.374;2022-07-06T13:24:57;100564.02;;;25.86;45.00
37304;BME280;23188;51.188;16.374;2022-07-06T13:29:01;100569.02;;;25.89;42.54
37304;BME280;23188;51.188;16.374;2022-07-06T13:33:04;100570.44;;;25.98;43.09
37304;BME280;23188;51.188;16.374;2022-07-06T13:37:05;100562.82;;;25.91;41.62
37304;BME280;23188;51.188;16.374;2022-07-06T13:41:10;100561.06;;;26.03;43.17
37304;BME280;23188;51.188;16.374;2022-07-06T13:45:12;100563.33;;;25.65;43.31
37304;BME280;23188;51.188;16.374;2022-07-06T13:49:13;100571.55;;;25.29;44.54
37304;BME280;23188;51.188;16.374;2022-07-06T13:53:25;100568.84;;;25.45;44.28
37304;BME280;23188;51.188;16.374;2022-07-06T13:57:27;100567.20;;;25.66;43.29
37304;BME280;23188;51.188;16.374;2022-07-06T14:01:29;100558.10;;;25.79;43.71
37304;BME280;23188;51.188;16.374;2022-07-06T14:05:32;100570.22;;;25.84;43.35
37304;BME280;23188;51.188;16.374;2022-07-06T14:09:34;100567.38;;;25.56;43.75
37304;BME280;23188;51.188;16.374;2022-07-06T14:13:36;100540.38;;;25.24;43.92
37304;BME280;23188;51.188;16.374;2022-07-06T14:17:38;100546.75;;;25.05;43.54
37304;BME280;23188;51.188;16.374;2022-07-06T14:21:40;100560.98;;;25.07;44.97
37304;BME280;23188;51.188;16.374;2022-07-06T14:25:42;100553.30;;;25.13;44.48
37304;BME280;23188;51.188;16.374;2022-07-06T14:29:44;100552.78;;;25.36;45.17
37304;BME280;23188;51.188;16.374;2022-07-06T14:33:55;100556.38;;;25.53;44.66
37304;BME280;23188;51.188;16.374;2022-07-06T14:37:57;100547.26;;;25.57;42.61
37304;BME280;23188;51.188;16.374;2022-07-06T14:41:59;100551.21;;;25.38;41.67
37304;BME280;23188;51.188;16.374;2022-07-06T14:46:00;100549.44;;;25.57;42.78
37304;BME280;23188;51.188;16.374;2022-07-06T14:50:03;100553.02;;;25.83;43.81
37304;BME280;23188;51.188;16.374;2022-07-06T14:54:05;100541.63;;;26.09;43.93
37304;BME280;23188;51.188;16.374;2022-07-06T14:58:07;100537.47;;;25.74;42.80
37304;BME280;23188;51.188;16.374;2022-07-06T15:02:08;100546.41;;;25.56;43.51
37304;BME280;23188;51.188;16.374;2022-07-06T15:06:10;100554.55;;;25.40;44.37
37304;BME280;23188;51.188;16.374;2022-07-06T15:10:11;100554.00;;;25.41;43.47
37304;BME280;23188;51.188;16.374;2022-07-06T15:14:13;100557.27;;;25.40;43.50
37304;BME280;23188;51.188;16.374;2022-07-06T15:18:21;100557.95;;;25.29;43.29
37304;BME280;23188;51.188;16.374;2022-07-06T15:22:20;100554.05;;;25.11;42.63
37304;BME280;23188;51.188;16.374;2022-07-06T15:26:22;100555.41;;;25.11;43.19
37304;BME280;23188;51.188;16.374;2022-07-06T15:30:26;100546.05;;;24.93;43.82
37304;BME280;23188;51.188;16.374;2022-07-06T15:34:30;100538.87;;;24.90;43.48
37304;BME280;23188;51.188;16.374;2022-07-06T15:38:31;100546.41;;;24.88;43.77
37304;BME280;23188;51.188;16.374;2022-07-06T15:42:35;100547.55;;;24.83;42.71
37304;BME280;23188;51.188;16.374;2022-07-06T15:46:38;100539.75;;;24.77;42.38
37304;BME280;23188;51.188;16.374;2022-07-06T15:50:40;100545.05;;;24.74;42.44
37304;BME280;23188;51.188;16.374;2022-07-06T15:54:42;100530.55;;;24.78;42.77
37304;BME280;23188;51.188;16.374;2022-07-06T15:58:45;100533.88;;;24.66;42.27
37304;BME280;23188;51.188;16.374;2022-07-06T16:02:48;100529.30;;;24.60;43.49
37304;BME280;23188;51.188;16.374;2022-07-06T16:06:50;100538.14;;;24.72;42.54
37304;BME280;23188;51.188;16.374;2022-07-06T16:10:52;100531.05;;;24.64;42.47
37304;BME280;23188;51.188;16.374;2022-07-06T16:15:18;100521.78;;;24.56;43.25
37304;BME280;23188;51.188;16.374;2022-07-06T16:19:20;100521.22;;;24.76;43.74
37304;BME280;23188;51.188;16.374;2022-07-06T16:23:21;100533.57;;;24.65;42.47
37304;BME280;23188;51.188;16.374;2022-07-06T16:27:23;100524.39;;;24.53;43.24
37304;BME280;23188;51.188;16.374;2022-07-06T16:31:25;100519.39;;;24.43;43.54
37304;BME280;23188;51.188;16.374;2022-07-06T16:35:27;100519.20;;;24.31;43.41
37304;BME280;23188;51.188;16.374;2022-07-06T16:39:30;100521.42;;;24.25;42.80
37304;BME280;23188;51.188;16.374;2022-07-06T16:43:33;100528.41;;;24.17;44.06
37304;BME280;23188;51.188;16.374;2022-07-06T16:47:35;100532.83;;;24.04;43.67
37304;BME280;23188;51.188;16.374;2022-07-06T16:51:36;100521.52;;;23.80;43.36
37304;BME280;23188;51.188;16.374;2022-07-06T16:55:38;100524.84;;;23.76;43.74
37304;BME280;23188;51.188;16.374;2022-07-06T16:59:39;100520.34;;;23.72;44.16
37304;BME280;23188;51.188;16.374;2022-07-06T17:03:42;100520.97;;;23.61;43.83
37304;BME280;23188;51.188;16.374;2022-07-06T17:07:43;100523.25;;;23.57;44.18
37304;BME280;23188;51.188;16.374;2022-07-06T17:11:45;100526.27;;;23.51;44.44
37304;BME280;23188;51.188;16.374;2022-07-06T17:15:46;100525.42;;;23.44;44.62
37304;BME280;23188;51.188;16.374;2022-07-06T17:19:48;100544.79;;;23.28;44.34
37304;BME280;23188;51.188;16.374;2022-07-06T17:23:49;100533.84;;;23.14;44.84
37304;BME280;23188;51.188;16.374;2022-07-06T17:32:17;100534.42;;;22.96;45.45
37304;BME280;23188;51.188;16.374;2022-07-06T17:36:18;100537.73;;;22.91;46.28
37304;BME280;23188;51.188;16.374;2022-07-06T17:40:20;100530.19;;;22.87;45.80
37304;BME280;23188;51.188;16.374;2022-07-06T17:44:23;100541.70;;;22.95;46.45
37304;BME280;23188;51.188;16.374;2022-07-06T17:48:24;100536.78;;;22.88;45.83
37304;BME280;23188;51.188;16.374;2022-07-06T17:52:33;100539.73;;;22.76;46.21
37304;BME280;23188;51.188;16.374;2022-07-06T17:56:36;100543.88;;;22.54;45.98
37304;BME280;23188;51.188;16.374;2022-07-06T18:00:39;100539.45;;;22.35;46.20
37304;BME280;23188;51.188;16.374;2022-07-06T18:04:42;100546.47;;;22.23;46.60
37304;BME280;23188;51.188;16.374;2022-07-06T18:08:52;100551.84;;;22.05;46.30
37304;BME280;23188;51.188;16.374;2022-07-06T18:12:54;100557.06;;;21.96;47.13
37304;BME280;23188;51.188;16.374;2022-07-06T18:16:56;100560.74;;;21.77;47.46
37304;BME280;23188;51.188;16.374;2022-07-06T18:20:57;100565.48;;;21.64;48.04
37304;BME280;23188;51.188;16.374;2022-07-06T18:24:59;100564.89;;;21.47;48.34
37304;BME280;23188;51.188;16.374;2022-07-06T18:29:01;100568.47;;;21.33;48.51
37304;BME280;23188;51.188;16.374;2022-07-06T18:33:03;100565.92;;;21.20;49.10
37304;BME280;23188;51.188;16.374;2022-07-06T18:37:05;100561.02;;;21.09;49.20
37304;BME280;23188;51.188;16.374;2022-07-06T18:41:06;100564.79;;;20.89;49.35
37304;BME280;23188;51.188;16.374;2022-07-06T18:45:09;100565.42;;;20.76;49.58
37304;BME280;23188;51.188;16.374;2022-07-06T18:49:11;100566.95;;;20.59;49.70
37304;BME280;23188;51.188;16.374;2022-07-06T18:53:13;100568.39;;;20.51;49.92
37304;BME280;23188;51.188;16.374;2022-07-06T18:57:16;100565.30;;;20.39;50.16
37304;BME280;23188;51.188;16.374;2022-07-06T19:01:18;100566.92;;;20.29;50.49
37304;BME280;23188;51.188;16.374;2022-07-06T19:05:20;100570.58;;;20.17;50.82
37304;BME280;23188;51.188;16.374;2022-07-06T19:09:21;100576.77;;;20.03;51.67
37304;BME280;23188;51.188;16.374;2022-07-06T19:13:23;100576.36;;;19.87;52.25
37304;BME280;23188;51.188;16.374;2022-07-06T19:17:26;100584.53;;;19.74;52.99
37304;BME280;23188;51.188;16.374;2022-07-06T19:21:29;100592.36;;;19.61;53.73
37304;BME280;23188;51.188;16.374;2022-07-06T19:25:30;100593.47;;;19.47;54.12
37304;BME280;23188;51.188;16.374;2022-07-06T19:29:32;100605.30;;;19.38;54.59
37304;BME280;23188;51.188;16.374;2022-07-06T19:33:33;100607.72;;;19.24;54.53
37304;BME280;23188;51.188;16.374;2022-07-06T19:37:35;100606.79;;;19.09;55.25
37304;BME280;23188;51.188;16.374;2022-07-06T19:41:37;100605.80;;;18.93;55.95
37304;BME280;23188;51.188;16.374;2022-07-06T19:45:38;100603.31;;;18.79;56.17
37304;BME280;23188;51.188;16.374;2022-07-06T19:49:40;100613.25;;;18.66;56.63
37304;BME280;23188;51.188;16.374;2022-07-06T19:53:41;100610.26;;;18.53;57.43
37304;BME280;23188;51.188;16.374;2022-07-06T19:57:51;100614.63;;;18.41;57.66
37304;BME280;23188;51.188;16.374;2022-07-06T20:01:52;100616.01;;;18.29;57.97
37304;BME280;23188;51.188;16.374;2022-07-06T20:05:54;100616.48;;;18.16;58.72
37304;BME280;23188;51.188;16.374;2022-07-06T20:09:56;100617.66;;;18.05;58.92
37304;BME280;23188;51.188;16.374;2022-07-06T20:13:57;100617.78;;;17.95;59.35
37304;BME280;23188;51.188;16.374;2022-07-06T20:18:03;100620.81;;;17.84;59.79
37304;BME280;23188;51.188;16.374;2022-07-06T20:22:04;100625.67;;;17.72;60.56
37304;BME280;23188;51.188;16.374;2022-07-06T20:26:07;100627.30;;;17.56;61.22
37304;BME280;23188;51.188;16.374;2022-07-06T20:30:09;100624.73;;;17.43;61.74
37304;BME280;23188;51.188;16.374;2022-07-06T20:34:11;100623.53;;;17.33;62.12
37304;BME280;23188;51.188;16.374;2022-07-06T20:38:13;100626.35;;;17.27;63.33
37304;BME280;23188;51.188;16.374;2022-07-06T20:42:14;100631.19;;;17.19;63.63
37304;BME280;23188;51.188;16.374;2022-07-06T20:46:15;100622.59;;;17.16;64.00
37304;BME280;23188;51.188;16.374;2022-07-06T20:50:17;100627.48;;;17.16;64.05
37304;BME280;23188;51.188;16.374;2022-07-06T20:54:18;100628.31;;;17.17;65.08
37304;BME280;23188;51.188;16.374;2022-07-06T20:58:20;100626.95;;;17.12;65.50
37304;BME280;23188;51.188;16.374;2022-07-06T21:02:21;100622.23;;;17.06;65.58
37304;BME280;23188;51.188;16.374;2022-07-06T21:06:23;100625.74;;;17.07;65.80
37304;BME280;23188;51.188;16.374;2022-07-06T21:10:24;100627.94;;;17.07;66.18
37304;BME280;23188;51.188;16.374;2022-07-06T21:14:36;100620.56;;;17.09;66.41
37304;BME280;23188;51.188;16.374;2022-07-06T21:18:37;100618.73;;;17.10;66.40
37304;BME280;23188;51.188;16.374;2022-07-06T21:22:41;100622.89;;;17.04;67.32
37304;BME280;23188;51.188;16.374;2022-07-06T21:26:43;100628.40;;;16.98;66.87
37304;BME280;23188;51.188;16.374;2022-07-06T21:30:44;100630.20;;;16.98;67.37
37304;BME280;23188;51.188;16.374;2022-07-06T21:34:54;100632.04;;;16.93;67.61